Time;durP1;ratioP1;P1;durP2;ratioP2;P2;SDS_P1;SDS_P2;PMS_P1;PMS_P2;Temp;Humidity;BMP_temperature;BMP_pressure;BME280_temperature;BME280_humidity;BME280_pressure;Samples;Min_cycle;Max_cycle;Signal;HPM_P1;HPM_P2
2024/01/12 00:03:02;;;;;;;2.40;1.10;;;-10.20;71.20;;;;;;4939523;28;20051;-86
2024/01/12 00:05:41;;;;;;;6.55;1.25;;;-10.20;71.50;;;;;;4949829;29;20063;-85
2024/01/12 00:08:08;;;;;;;1.55;1.45;;;-10.20;71.30;;;;;;5003455;28;20151;-84
2024/01/12 00:10:36;;;;;;;1.92;1.10;;;-10.10;71.40;;;;;;5033108;28;20049;-85
2024/01/12 00:13:08;;;;;;;5.57;2.00;;;-10.10;71.20;;;;;;5090222;28;20040;-85
2024/01/12 00:15:42;;;;;;;5.60;1.87;;;-10.00;71.30;;;;;;5101222;28;20134;-87
2024/01/12 00:18:14;;;;;;;1.65;1.10;;;-10.10;70.80;;;;;;5113242;28;20089;-85
2024/01/12 00:20:43;;;;;;;6.97;1.20;;;-10.00;71.10;;;;;;5103637;28;20431;-84
2024/01/12 00:23:13;;;;;;;4.57;1.20;;;-10.10;70.60;;;;;;5097471;28;20093;-86
2024/01/12 00:25:40;;;;;;;6.05;2.00;;;-10.20;70.80;;;;;;5104916;28;20597;-87
2024/01/12 00:28:13;;;;;;;7.10;2.15;;;-10.20;71.00;;;;;;5099581;28;20404;-87
2024/01/12 00:30:40;;;;;;;;;;;-10.20;71.10;;;;;;5084448;28;20486;-86
2024/01/12 00:33:17;;;;;;;10.88;2.20;;;-10.20;71.40;;;;;;5093796;28;21918;-86
2024/01/12 00:35:48;;;;;;;3.53;1.50;;;-10.30;71.20;;;;;;5107435;28;20468;-85
2024/01/12 00:38:27;;;;;;;;;;;;;;;;;;;;;
2024/01/12 00:41:25;;;;;;;6.25;1.90;;;-10.30;71.40;;;;;;5110601;28;20097;-86
2024/01/12 00:44:41;;;;;;;14.02;2.28;;;-10.40;72.20;;;;;;5103826;28;20051;-86
2024/01/12 00:47:10;;;;;;;3.25;1.42;;;-10.40;71.50;;;;;;5100762;28;20112;-86
2024/01/12 00:49:37;;;;;;;6.10;1.45;;;-10.30;71.50;;;;;;5110650;28;20142;-86
2024/01/12 00:52:08;;;;;;;8.60;1.88;;;-10.30;71.50;;;;;;5108846;28;20051;-88
2024/01/12 00:54:40;;;;;;;4.55;1.77;;;-10.30;71.40;;;;;;5095991;28;20047;-88
2024/01/12 00:57:19;;;;;;;;;;;;;;;;;;;;;
2024/01/12 01:00:10;;;;;;;4.75;1.20;;;-10.40;71.50;;;;;;5102402;28;20450;-86
2024/01/12 01:03:20;;;;;;;6.72;1.75;;;-10.50;71.30;;;;;;5056663;28;20078;-87
2024/01/12 01:06:29;;;;;;;;;;;;;;;;;;;;;
2024/01/12 01:09:31;;;;;;;5.30;1.33;;;-10.40;71.40;;;;;;5025884;28;20045;-87
2024/01/12 01:12:24;;;;;;;3.33;1.20;;;-10.50;71.40;;;;;;5050198;28;20055;-87
2024/01/12 01:15:19;;;;;;;;;;;;;;;;;;;;;
2024/01/12 01:18:17;;;;;;;;;;;;;;;;;;;;;
2024/01/12 01:21:34;;;;;;;;;;;;;;;;;;;;;
2024/01/12 01:24:29;;;;;;;5.90;1.75;;;-10.50;71.20;;;;;;5010072;28;20056;-86
2024/01/12 01:28:02;;;;;;;;;;;;;;;;;;;;;
2024/01/12 01:31:03;;;;;;;;;;;;;;;;;;;;;
2024/01/12 01:34:27;;;;;;;5.90;2.05;;;-10.60;71.60;;;;;;5075032;28;20073;-87
2024/01/12 01:37:01;;;;;;;3.40;1.35;;;-10.70;71.60;;;;;;5096763;28;20052;-86
2024/01/12 01:39:29;;;;;;;9.90;1.80;;;-10.70;71.80;;;;;;5102254;28;20117;-86
2024/01/12 01:42:07;;;;;;;8.93;2.03;;;-10.70;72.00;;;;;;5091017;28;20515;-85
2024/01/12 01:44:34;;;;;;;8.35;1.70;;;-10.80;71.70;;;;;;5078886;28;20044;-87
2024/01/12 01:47:04;;;;;;;5.32;1.58;;;-10.80;71.80;;;;;;5105474;28;20530;-87
2024/01/12 01:49:33;;;;;;;6.60;2.13;;;-10.80;71.90;;;;;;5110371;28;20142;-86
2024/01/12 01:52:05;;;;;;;6.78;2.10;;;-10.80;71.80;;;;;;5099533;28;20125;-87
2024/01/12 01:55:22;;;;;;;;;;;;;;;;;;;;;
2024/01/12 01:59:08;;;;;;;;;;;;;;;;;;;;;
2024/01/12 02:02:54;;;;;;;9.55;2.03;;;-10.90;71.70;;;;;;4983589;28;20070;-87
2024/01/12 02:15:11;;;;;;;4.05;1.90;;;-10.90;72.10;;;;;;4873626;29;20119;-88
2024/01/12 02:17:38;;;;;;;7.05;2.40;;;-10.90;72.00;;;;;;4945725;28;20051;-87
2024/01/12 02:20:26;;;;;;;12.60;2.20;;;-10.90;71.80;;;;;;5090478;28;20047;-88
2024/01/12 02:22:55;;;;;;;4.38;2.08;;;-10.90;72.00;;;;;;5092775;28;20078;-87
2024/01/12 02:25:23;;;;;;;8.57;2.40;;;-11.00;71.90;;;;;;5110208;28;20055;-86
2024/01/12 02:27:50;;;;;;;3.75;1.77;;;-11.00;71.90;;;;;;5114386;28;20047;-86
2024/01/12 02:30:22;;;;;;;8.93;2.78;;;-11.00;72.00;;;;;;5106890;28;20597;-86
2024/01/12 02:32:50;;;;;;;3.97;1.83;;;-11.00;72.10;;;;;;5114786;28;20047;-87
2024/01/12 02:35:20;;;;;;;8.13;3.25;;;-10.90;71.70;;;;;;5111628;28;20644;-86
2024/01/12 02:37:49;;;;;;;5.25;1.75;;;-10.90;71.70;;;;;;5110677;28;20050;-88
2024/01/12 02:40:20;;;;;;;4.60;2.15;;;-10.90;72.00;;;;;;5106651;28;20052;-87
2024/01/12 02:42:51;;;;;;;10.48;3.10;;;-10.90;71.90;;;;;;5095154;28;20046;-88
2024/01/12 02:45:19;;;;;;;6.05;2.05;;;-10.90;72.00;;;;;;5111100;28;20543;-86
2024/01/12 02:47:46;;;;;;;5.32;2.42;;;-10.90;71.70;;;;;;5101287;28;20046;-88
2024/01/12 02:50:15;;;;;;;5.10;2.70;;;-10.90;71.80;;;;;;5109684;28;20059;-87
2024/01/12 02:52:43;;;;;;;8.80;2.20;;;-10.90;71.70;;;;;;5087414;28;20050;-87
2024/01/12 02:55:15;;;;;;;6.95;2.40;;;-10.90;72.00;;;;;;5108480;28;20058;-86
2024/01/12 02:57:44;;;;;;;11.13;2.92;;;-10.90;71.80;;;;;;5091246;28;20048;-88
2024/01/12 03:00:14;;;;;;;8.55;2.40;;;-10.90;71.80;;;;;;5098536;28;20058;-89
2024/01/12 03:02:41;;;;;;;10.25;2.78;;;-10.80;71.80;;;;;;5097960;28;20512;-87
2024/01/12 03:05:09;;;;;;;5.63;2.25;;;-10.90;71.60;;;;;;5094069;28;20134;-83
2024/01/12 03:07:37;;;;;;;5.50;1.88;;;-10.90;71.90;;;;;;5100365;28;20044;-82
2024/01/12 03:10:07;;;;;;;7.30;2.15;;;-10.90;71.90;;;;;;5104137;28;20535;-82
2024/01/12 03:12:36;;;;;;;10.75;1.90;;;-10.90;72.20;;;;;;5099594;28;20056;-82
2024/01/12 03:15:12;;;;;;;7.07;2.60;;;-10.90;72.30;;;;;;5093901;28;20495;-82
2024/01/12 03:17:40;;;;;;;7.57;2.85;;;-10.90;72.20;;;;;;5102299;27;20052;-81
2024/01/12 03:20:12;;;;;;;6.35;2.92;;;-10.80;72.10;;;;;;5080590;28;20040;-82
2024/01/12 03:22:39;;;;;;;6.90;2.10;;;-10.90;71.90;;;;;;5085539;28;20075;-81
2024/01/12 03:25:10;;;;;;;6.28;2.53;;;-10.90;71.90;;;;;;5105343;28;20052;-83
2024/01/12 03:27:45;;;;;;;7.15;2.05;;;-10.90;71.80;;;;;;5105315;28;20050;-83
2024/01/12 03:30:17;;;;;;;5.93;2.67;;;-10.90;71.70;;;;;;5129612;28;20050;-82
2024/01/12 03:32:49;;;;;;;5.97;2.40;;;-10.90;71.90;;;;;;5122913;28;20086;-82
2024/01/12 03:35:24;;;;;;;6.45;5.05;;;-10.80;71.80;;;;;;5102553;28;20055;-81
2024/01/12 03:37:52;;;;;;;4.45;1.80;;;-10.90;71.70;;;;;;5116468;28;20039;-81
2024/01/12 03:40:21;;;;;;;6.72;2.25;;;-10.90;71.70;;;;;;5098201;28;20109;-80
2024/01/12 03:42:48;;;;;;;12.35;2.67;;;-10.90;71.70;;;;;;5082567;28;20060;-80
2024/01/12 03:45:17;;;;;;;8.80;2.75;;;-10.90;71.70;;;;;;5100027;28;20043;-81
2024/01/12 03:47:47;;;;;;;11.00;2.38;;;-10.90;71.70;;;;;;5115326;28;20143;-80
2024/01/12 03:50:14;;;;;;;8.57;3.60;;;-10.90;71.80;;;;;;5108314;28;20052;-82
2024/01/12 03:52:42;;;;;;;10.75;3.30;;;-10.80;72.00;;;;;;5084839;28;20468;-82
2024/01/12 03:55:09;;;;;;;8.48;2.03;;;-10.80;71.70;;;;;;5108974;28;20054;-81
2024/01/12 03:57:37;;;;;;;15.30;3.35;;;-10.80;71.80;;;;;;5102890;28;20092;-82
2024/01/12 04:00:08;;;;;;;4.97;2.35;;;-10.80;71.60;;;;;;5080617;28;20051;-81
2024/01/12 04:02:41;;;;;;;10.73;3.53;;;-10.80;71.90;;;;;;5111476;28;20036;-82
2024/01/12 04:05:09;;;;;;;8.15;2.63;;;-10.80;71.90;;;;;;5114503;28;20040;-80
2024/01/12 04:07:37;;;;;;;9.15;1.85;;;-10.80;71.90;;;;;;5104221;28;20103;-85
2024/01/12 04:10:09;;;;;;;4.05;1.90;;;-10.70;72.00;;;;;;5094558;28;20044;-86
2024/01/12 04:12:43;;;;;;;6.28;2.65;;;-10.70;71.80;;;;;;5109940;28;20475;-87
2024/01/12 04:15:17;;;;;;;3.22;2.55;;;-10.70;71.80;;;;;;5115779;28;20132;-86
2024/01/12 04:17:46;;;;;;;9.52;2.58;;;-10.70;71.80;;;;;;5099706;28;20481;-86
2024/01/12 04:20:14;;;;;;;7.60;2.42;;;-10.70;72.00;;;;;;5108464;28;20052;-88
2024/01/12 04:22:42;;;;;;;8.85;2.28;;;-10.70;72.00;;;;;;5091879;28;20112;-86
2024/01/12 04:25:13;;;;;;;4.72;2.10;;;-10.60;71.90;;;;;;5105616;28;20507;-89
2024/01/12 04:27:42;;;;;;;5.82;2.10;;;-10.70;71.80;;;;;;5086227;28;20040;-88
2024/01/12 04:30:16;;;;;;;8.20;2.80;;;-10.70;71.90;;;;;;5113667;28;20116;-88
2024/01/12 04:32:47;;;;;;;14.32;2.50;;;-10.70;71.90;;;;;;5110569;28;20057;-83
2024/01/12 04:35:20;;;;;;;11.02;2.67;;;-10.70;72.30;;;;;;5094144;28;20139;-83
2024/01/12 04:38:13;;;;;;;;;;;;;;;;;;;;;
2024/01/12 04:41:43;;;;;;;;;;;;;;;;;;;;;
2024/01/12 04:44:54;;;;;;;;;;;;;;;;;;;;;
2024/01/12 04:47:54;;;;;;;9.60;2.65;;;-10.70;72.10;;;;;;5048550;28;20485;-85
2024/01/12 04:51:12;;;;;;;;;;;;;;;;;;;;;
2024/01/12 04:54:11;;;;;;;8.38;3.47;;;-10.60;72.50;;;;;;5006841;28;20072;-82
2024/01/12 04:56:40;;;;;;;8.23;3.15;;;-10.60;72.70;;;;;;5061442;28;20581;-85
2024/01/12 04:59:08;;;;;;;13.43;2.72;;;-10.60;72.50;;;;;;5108861;28;20068;-85
2024/01/12 05:01:36;;;;;;;6.55;2.42;;;-10.60;72.40;;;;;;5100725;28;20491;-83
2024/01/12 05:04:07;;;;;;;8.27;3.15;;;-10.60;72.40;;;;;;5089892;28;20039;-83
2024/01/12 05:07:32;;;;;;;8.75;2.92;;;-10.60;72.40;;;;;;5096493;28;20047;-90
2024/01/12 05:11:29;;;;;;;;;;;;;;;;;;;;;
2024/01/12 05:14:44;;;;;;;;;;;;;;;;;;;;;
2024/01/12 05:17:57;;;;;;;10.77;3.80;;;-10.60;72.00;;;;;;4980166;28;20554;-84
2024/01/12 05:21:22;;;;;;;;;;;;;;;;;;;;;
2024/01/12 05:24:08;;;;;;;;;;;;;;;;;;;;;
2024/01/12 05:27:54;;;;;;;;;;;;;;;;;;;;;
2024/01/12 05:30:36;;;;;;;8.45;3.55;;;-10.70;72.00;;;;;;4973426;28;20523;-83
2024/01/12 05:33:04;;;;;;;9.82;3.65;;;-10.70;72.20;;;;;;5026667;28;20056;-82
2024/01/12 05:35:42;;;;;;;14.18;4.28;;;-10.70;72.10;;;;;;5053756;28;20060;-82
2024/01/12 05:38:11;;;;;;;8.38;3.17;;;-10.70;72.00;;;;;;5090212;28;20397;-82
2024/01/12 05:40:38;;;;;;;4.63;2.90;;;-10.70;72.20;;;;;;5095973;28;20040;-83
2024/01/12 05:43:06;;;;;;;8.90;3.47;;;-10.70;72.10;;;;;;5112129;28;20062;-82
2024/01/12 05:45:33;;;;;;;10.27;3.88;;;-10.70;72.20;;;;;;5110505;28;20044;-83
2024/01/12 05:48:03;;;;;;;9.50;4.43;;;-10.70;72.40;;;;;;5100730;28;20088;-83
2024/01/12 05:50:30;;;;;;;8.13;3.78;;;-10.60;72.20;;;;;;5101274;28;20503;-82
2024/01/12 05:52:59;;;;;;;9.20;3.08;;;-10.70;72.00;;;;;;5102831;28;20507;-83
2024/01/12 05:55:29;;;;;;;6.68;3.17;;;-10.70;72.10;;;;;;5090522;28;20120;-82
2024/01/12 05:57:57;;;;;;;9.07;3.47;;;-10.70;72.20;;;;;;5100621;28;20086;-82
2024/01/12 06:00:26;;;;;;;6.93;2.72;;;-10.70;72.30;;;;;;5100417;28;20130;-85
2024/01/12 06:02:54;;;;;;;11.52;3.03;;;-10.70;72.30;;;;;;5102231;28;20138;-83
2024/01/12 06:05:22;;;;;;;10.05;4.40;;;-10.70;72.30;;;;;;5102269;28;20051;-83
2024/01/12 06:07:49;;;;;;;10.55;3.35;;;-10.70;72.10;;;;;;5100245;28;20499;-83
2024/01/12 06:10:19;;;;;;;11.00;2.95;;;-10.70;72.10;;;;;;5102583;28;20039;-83
2024/01/12 06:12:50;;;;;;;7.00;3.63;;;-10.80;72.10;;;;;;5101459;28;20051;-84
2024/01/12 06:15:18;;;;;;;12.07;3.20;;;-10.80;72.30;;;;;;5087513;28;20063;-82
2024/01/12 06:18:07;;;;;;;8.68;3.50;;;-10.80;72.20;;;;;;5097534;28;20446;-82
2024/01/12 06:20:35;;;;;;;12.90;3.80;;;-10.80;72.10;;;;;;5099856;28;20060;-81
2024/01/12 06:23:07;;;;;;;6.63;3.60;;;-10.80;72.20;;;;;;5102144;28;20048;-83
2024/01/12 06:26:16;;;;;;;;;;;;;;;;;;;;;
2024/01/12 06:29:41;;;;;;;;;;;;;;;;;;;;;
2024/01/12 06:33:41;;;;;;;;;;;;;;;;;;;;;
2024/01/12 06:37:20;;;;;;;;;;;;;;;;;;;;;
2024/01/12 06:40:23;;;;;;;9.85;4.50;;;-10.80;72.20;;;;;;4958383;28;20057;-86
2024/01/12 06:43:00;;;;;;;;;;;;;;;;;;;;;
2024/01/12 06:46:35;;;;;;;;;;;;;;;;;;;;;
2024/01/12 06:49:50;;;;;;;;;;;;;;;;;;;;;
2024/01/12 06:53:18;;;;;;;;;;;;;;;;;;;;;
2024/01/12 06:56:36;;;;;;;;;;;;;;;;;;;;;
2024/01/12 06:59:37;;;;;;;10.77;4.80;;;-10.70;71.90;;;;;;5048424;28;20048;-87
2024/01/12 07:02:08;;;;;;;19.38;6.10;;;-10.70;71.80;;;;;;5027711;28;20532;-89
2024/01/12 07:04:39;;;;;;;16.95;4.95;;;-10.70;71.90;;;;;;5048028;28;20160;-87
2024/01/12 07:07:12;;;;;;;16.65;5.20;;;-10.70;71.70;;;;;;5065295;28;20112;-89
2024/01/12 07:09:45;;;;;;;20.90;6.13;;;-10.70;71.70;;;;;;5090733;28;20105;-87
2024/01/12 07:12:14;;;;;;;19.05;5.97;;;-10.70;72.40;;;;;;5099133;28;20486;-87
2024/01/12 07:14:42;;;;;;;19.60;5.53;;;-10.60;71.70;;;;;;5109470;28;20035;-88
2024/01/12 07:17:10;;;;;;;18.33;6.18;;;-10.60;71.60;;;;;;5110269;28;20516;-87
2024/01/12 07:19:38;;;;;;;13.65;4.70;;;-10.60;71.50;;;;;;5109960;28;20518;-88
2024/01/12 07:22:06;;;;;;;11.43;4.93;;;-10.50;71.40;;;;;;5105212;28;20138;-86
2024/01/12 07:24:33;;;;;;;14.45;4.53;;;-10.50;71.50;;;;;;5110224;28;20066;-88
2024/01/12 07:27:01;;;;;;;9.00;5.00;;;-10.50;71.50;;;;;;5111975;28;20047;-89
2024/01/12 07:29:28;;;;;;;20.88;6.88;;;-10.50;71.20;;;;;;5108569;28;20036;-87
2024/01/12 07:31:56;;;;;;;18.48;8.27;;;-10.40;70.70;;;;;;5113133;28;20466;-88
2024/01/12 07:34:26;;;;;;;22.20;8.90;;;-10.50;70.30;;;;;;5094310;28;20392;-90
2024/01/12 07:36:57;;;;;;;26.98;10.55;;;-10.50;70.20;;;;;;5112794;28;20093;-86
2024/01/12 07:39:28;;;;;;;21.00;10.00;;;-10.50;69.90;;;;;;5092070;28;20050;-87
2024/01/12 07:41:56;;;;;;;19.95;9.02;;;-10.50;69.90;;;;;;5093514;28;20043;-90
2024/01/12 07:44:24;;;;;;;18.50;8.95;;;-10.50;70.10;;;;;;5111694;28;20051;-88
2024/01/12 07:46:51;;;;;;;13.32;6.82;;;-10.50;69.90;;;;;;5109835;28;20066;-89
2024/01/12 07:49:21;;;;;;;24.65;9.05;;;-10.40;70.10;;;;;;5107382;28;20067;-88
2024/01/12 07:51:51;;;;;;;55.05;16.25;;;-10.30;70.10;;;;;;5113732;28;20507;-88
2024/01/12 07:54:19;;;;;;;80.03;20.70;;;-10.30;69.90;;;;;;5114309;28;20051;-87
2024/01/12 07:56:46;;;;;;;90.10;22.95;;;-10.30;70.00;;;;;;5092314;28;20062;-86
2024/01/12 07:59:13;;;;;;;80.55;21.38;;;-10.20;69.70;;;;;;5092038;28;20454;-88
2024/01/12 08:01:48;;;;;;;53.30;16.17;;;-10.20;69.50;;;;;;5075304;28;20606;-82
2024/01/12 08:04:18;;;;;;;62.00;15.82;;;-10.10;69.10;;;;;;5103044;28;20044;-81
2024/01/12 08:06:46;;;;;;;44.60;15.48;;;-10.10;69.00;;;;;;5085764;28;20500;-83
2024/01/12 08:09:15;;;;;;;40.03;13.32;;;-10.00;69.20;;;;;;5093918;28;20048;-83
2024/01/12 08:11:42;;;;;;;40.65;13.82;;;-9.90;69.30;;;;;;5074167;28;20044;-82
2024/01/12 08:14:10;;;;;;;38.10;12.10;;;-9.90;69.20;;;;;;5093599;28;20051;-83
2024/01/12 08:16:37;;;;;;;34.80;11.13;;;-9.90;69.00;;;;;;5106307;28;20062;-83
2024/01/12 08:19:05;;;;;;;29.55;9.20;;;-9.80;68.90;;;;;;5113895;28;20476;-84
2024/01/12 08:21:32;;;;;;;26.83;8.35;;;-9.80;68.90;;;;;;5112981;28;20062;-84
2024/01/12 08:24:00;;;;;;;20.00;8.18;;;-9.70;68.50;;;;;;5112045;28;20048;-84
2024/01/12 08:26:31;;;;;;;26.58;9.02;;;-9.70;68.30;;;;;;5091528;28;20101;-83
2024/01/12 08:29:01;;;;;;;22.20;8.88;;;-9.60;67.90;;;;;;5093113;28;20420;-83
2024/01/12 08:31:29;;;;;;;19.25;7.50;;;-9.60;67.60;;;;;;5093439;28;20583;-84
2024/01/12 08:33:57;;;;;;;22.33;6.85;;;-9.60;67.30;;;;;;5097347;28;20070;-83
2024/01/12 08:36:24;;;;;;;16.63;7.45;;;-9.50;67.60;;;;;;5074856;28;20051;-83
2024/01/12 08:38:52;;;;;;;54.33;16.17;;;-9.50;67.40;;;;;;5075400;28;20044;-82
2024/01/12 08:41:29;;;;;;;49.55;18.55;;;-9.50;66.20;;;;;;5075580;28;20071;-83
2024/01/12 08:43:58;;;;;;;52.75;19.98;;;-9.60;64.90;;;;;;5082471;28;20051;-84
2024/01/12 08:46:25;;;;;;;67.80;21.85;;;-9.70;64.40;;;;;;5092047;28;20054;-83
2024/01/12 08:48:54;;;;;;;56.72;23.48;;;-9.80;64.30;;;;;;5092216;28;20150;-83
2024/01/12 08:51:23;;;;;;;57.45;21.90;;;-9.90;64.30;;;;;;5093172;28;20063;-84
2024/01/12 08:53:51;;;;;;;51.72;22.90;;;-9.90;63.80;;;;;;5094156;28;20120;-83
2024/01/12 08:56:18;;;;;;;63.33;22.10;;;-9.90;63.60;;;;;;5112291;28;20051;-83
2024/01/12 08:58:46;;;;;;;58.42;22.35;;;-10.00;64.00;;;;;;5095016;28;20044;-84
2024/01/12 09:01:15;;;;;;;57.72;24.42;;;-10.00;64.50;;;;;;5091566;28;20043;-83
2024/01/12 09:03:43;;;;;;;52.65;22.38;;;-10.00;64.70;;;;;;5106260;28;20050;-84
2024/01/12 09:06:12;;;;;;;56.47;24.20;;;-10.10;64.60;;;;;;5104509;28;20463;-85
2024/01/12 09:08:39;;;;;;;65.82;24.60;;;-10.00;64.70;;;;;;5101641;28;20071;-83
2024/01/12 09:11:18;;;;;;;56.67;20.70;;;-10.00;64.80;;;;;;5104102;28;20047;-85
2024/01/12 09:14:00;;;;;;;53.40;22.15;;;-10.00;64.90;;;;;;5100866;28;20052;-85
2024/01/12 09:16:37;;;;;;;52.45;21.95;;;-10.00;64.70;;;;;;5083532;28;20146;-84
2024/01/12 09:19:08;;;;;;;53.85;22.25;;;-9.90;64.50;;;;;;5083922;28;20123;-85
2024/01/12 09:22:09;;;;;;;;;;;;;;;;;;;;;
2024/01/12 09:24:37;;;;;;;48.22;19.73;;;-9.80;64.70;;;;;;5097975;28;20077;-90
2024/01/12 09:30:36;;;;;;;33.58;14.25;;;-9.60;64.10;;;;;;5090135;28;20050;-88
2024/01/12 09:33:54;;;;;;;;;;;;;;;;;;;;;
2024/01/12 09:37:49;;;;;;;;;;;;;;;;;;;;;
2024/01/12 09:41:00;;;;;;;;;;;;;;;;;;;;;
2024/01/12 09:50:35;;;;;;;39.38;17.65;;;-9.80;64.00;;;;;;4970954;28;20062;-89
2024/01/12 09:53:05;;;;;;;39.67;15.98;;;-9.60;63.70;;;;;;5010766;28;20049;-88
2024/01/12 09:55:48;;;;;;;;;;;;;;;;;;;;;
2024/01/12 09:58:23;;;;;;;32.50;14.98;;;-8.80;62.20;;;;;;5016452;28;20105;-89
2024/01/12 10:00:52;;;;;;;30.65;14.05;;;-8.50;61.30;;;;;;5036567;28;20103;-88
2024/01/12 10:03:21;;;;;;;28.35;12.90;;;-8.40;60.70;;;;;;5104496;28;20044;-90
2024/01/12 10:05:55;;;;;;;32.55;14.48;;;-8.50;60.60;;;;;;5104766;28;20051;-89
2024/01/12 10:08:36;;;;;;;31.17;13.30;;;-8.30;60.50;;;;;;5111879;28;20047;-90
2024/01/12 10:11:17;;;;;;;32.92;12.80;;;-8.00;59.90;;;;;;5111533;28;20039;-90
2024/01/12 10:13:45;;;;;;;29.25;11.13;;;-8.00;59.00;;;;;;5106938;28;20523;-90
2024/01/12 10:16:28;;;;;;;;;;;;;;;;;;;;;
2024/01/12 10:19:19;;;;;;;30.30;10.80;;;-8.60;59.90;;;;;;5057775;28;20055;-89
2024/01/12 10:21:50;;;;;;;19.77;10.40;;;-8.80;60.90;;;;;;5096817;28;20043;-89
2024/01/12 10:24:24;;;;;;;18.25;8.93;;;-9.00;61.50;;;;;;5095008;28;20090;-82
2024/01/12 10:27:02;;;;;;;18.17;8.63;;;-9.00;62.10;;;;;;5092666;28;20044;-84
2024/01/12 10:29:41;;;;;;;20.75;9.30;;;-9.00;62.40;;;;;;5082958;28;20125;-84
2024/01/12 10:32:59;;;;;;;21.58;8.88;;;-9.00;62.40;;;;;;5111626;28;20049;-83
2024/01/12 10:36:23;;;;;;;;;;;;;;;;;;;;;
2024/01/12 10:39:03;;;;;;;;;;;;;;;;;;;;;
2024/01/12 11:01:15;;;;;;;;;;;;;;;;;;;;;
2024/01/12 11:04:21;;;;;;;29.13;13.50;;;-8.20;61.40;;;;;;4921851;28;20058;-84
2024/01/12 11:06:56;;;;;;;30.00;13.10;;;-7.70;59.70;;;;;;4986929;28;20116;-86
2024/01/12 11:09:25;;;;;;;25.23;12.77;;;-8.00;58.90;;;;;;5012529;28;20801;-86
2024/01/12 11:12:58;;;;;;;;;;;;;;;;;;;;;
2024/01/12 11:16:08;;;;;;;;;;;;;;;;;;;;;
2024/01/12 12:00:10;;;;;;;34.70;15.07;;;-10.00;66.40;;;;;;5135201;27;20057;-87
2024/01/12 12:02:37;;;;;;;27.23;13.93;;;-10.00;66.60;;;;;;5090605;27;20425;-86
2024/01/12 12:05:10;;;;;;;37.00;15.65;;;-10.10;66.60;;;;;;5121523;27;20047;-83
2024/01/12 12:07:55;;;;;;;;;;;;;;;;;;;;;
2024/01/12 12:11:51;;;;;;;;;;;;;;;;;;;;;
2024/01/12 12:15:44;;;;;;;;;;;;;;;;;;;;;
2024/01/12 12:26:48;;;;;;;52.03;19.52;;;-10.20;66.70;;;;;;4907517;28;20051;-86
2024/01/12 12:29:20;;;;;;;53.08;24.00;;;-10.30;66.50;;;;;;5055062;28;20063;-85
2024/01/12 12:32:49;;;;;;;;;;;;;;;;;;;;;
2024/01/12 12:36:10;;;;;;;;;;;;;;;;;;;;;
2024/01/12 12:39:45;;;;;;;;;;;;;;;;;;;;;
2024/01/12 12:55:22;;;;;;;;;;;;;;;;;;;;;
2024/01/12 13:02:14;;;;;;;24.65;11.80;;;-10.60;68.80;;;;;;4843840;29;20048;-85
2024/01/12 13:05:46;;;;;;;;;;;;;;;;;;;;;
2024/01/12 13:09:41;;;;;;;;;;;;;;;;;;;;;
2024/01/12 13:12:41;;;;;;;51.75;21.42;;;-10.70;68.30;;;;;;4879714;29;20058;-86
2024/01/12 13:16:27;;;;;;;;;;;;;;;;;;;;;
2024/01/12 13:19:51;;;;;;;;;;;;;;;;;;;;;
2024/01/12 13:23:23;;;;;;;;;;;;;;;;;;;;;
2024/01/12 13:26:47;;;;;;;53.15;21.30;;;-10.90;68.10;;;;;;4955596;28;20074;-82
2024/01/12 14:48:05;;;;;;;;;;;;;;;;;;;;;
2024/01/12 14:51:33;;;;;;;;;;;;;;;;;;;;;
2024/01/12 14:55:01;;;;;;;46.97;17.25;;;-10.60;69.00;;;;;;5003755;28;20159;-84
2024/01/12 14:59:13;;;;;;;;;;;;;;;;;;;;;
2024/01/12 15:02:29;;;;;;;;;;;;;;;;;;;;;
2024/01/12 16:08:55;;;;;;;28.63;11.68;;;-9.40;68.50;;;;;;4773961;29;20051;-83
2024/01/12 16:11:54;;;;;;;;;;;;;;;;;;;;;
2024/01/12 16:31:01;;;;;;;27.88;10.23;;;-9.20;68.90;;;;;;4957431;28;20522;-83
2024/01/12 16:34:01;;;;;;;18.92;9.20;;;-9.20;68.80;;;;;;4958657;28;20055;-83
2024/01/12 16:36:57;;;;;;;21.77;9.85;;;-9.10;69.10;;;;;;4961793;28;20093;-84
2024/01/12 16:45:11;;;;;;;23.77;8.77;;;-9.10;69.20;;;;;;4850313;29;20232;-83
2024/01/12 16:48:16;;;;;;;20.05;8.63;;;-9.00;69.40;;;;;;4826905;28;20147;-86
2024/01/12 16:51:40;;;;;;;23.50;8.52;;;-8.90;69.10;;;;;;4953512;28;20079;-85
2024/01/12 16:54:28;;;;;;;18.45;8.35;;;-8.90;69.20;;;;;;4961062;28;20051;-86
2024/01/12 17:01:26;;;;;;;18.48;8.00;;;-8.80;69.70;;;;;;4902388;29;20551;-81
2024/01/12 17:04:16;;;;;;;21.88;9.20;;;-8.80;70.00;;;;;;4887834;28;20412;-84
2024/01/12 17:07:09;;;;;;;21.58;8.82;;;-8.70;70.00;;;;;;4925773;28;20055;-81
2024/01/12 17:10:02;;;;;;;17.65;9.48;;;-8.60;70.10;;;;;;4834694;29;20141;-85
2024/01/12 17:13:00;;;;;;;25.35;9.18;;;-8.60;70.00;;;;;;4855640;29;20053;-84
2024/01/12 17:16:37;;;;;;;28.17;10.52;;;-8.60;70.00;;;;;;4853919;29;20050;-83
2024/01/12 17:19:36;;;;;;;24.63;8.93;;;-8.60;69.80;;;;;;4920693;29;20091;-82
2024/01/12 17:22:52;;;;;;;;;;;;;;;;;;;;;
2024/01/12 17:25:43;;;;;;;;;;;;;;;;;;;;;
2024/01/12 17:32:17;;;;;;;29.73;9.25;;;-8.50;69.60;;;;;;4878285;29;20053;-85
2024/01/12 17:35:03;;;;;;;18.88;8.90;;;-8.60;69.40;;;;;;4913705;29;20059;-83
2024/01/12 17:38:06;;;;;;;18.67;7.93;;;-8.60;69.60;;;;;;4948814;29;20082;-82
2024/01/12 17:41:36;;;;;;;;;;;;;;;;;;;;;
2024/01/12 17:45:01;;;;;;;;;;;;;;;;;;;;;
2024/01/12 17:49:15;;;;;;;;;;;;;;;;;;;;;
2024/01/12 18:17:21;;;;;;;;;;;;;;;;;;;;;
2024/01/12 19:18:39;;;;;;;11.77;3.85;;;-10.20;70.10;;;;;;4788126;29;20695;-83
2024/01/12 19:24:23;;;;;;;9.32;4.75;;;-10.50;70.30;;;;;;4793897;29;20582;-79
2024/01/12 19:26:51;;;;;;;11.38;3.67;;;-10.60;70.50;;;;;;4761877;29;20127;-80
2024/01/12 19:29:18;;;;;;;9.65;4.05;;;-10.70;70.70;;;;;;4709991;29;20049;-82
2024/01/12 19:31:57;;;;;;;10.57;4.47;;;-10.60;70.90;;;;;;4597835;30;20510;-84
2024/01/12 19:38:33;;;;;;;;;;;;;;;;;;;;;
2024/01/12 19:42:14;;;;;;;;;;;;;;;;;;;;;
2024/01/12 20:17:34;;;;;;;9.23;4.38;;;-10.90;70.70;;;;;;4771765;29;20081;-83
2024/01/12 20:20:05;;;;;;;12.32;5.40;;;-10.90;71.10;;;;;;4828392;29;20445;-86
2024/01/12 20:22:56;;;;;;;18.08;5.07;;;-11.00;71.00;;;;;;4869208;29;20062;-85
2024/01/12 20:25:42;;;;;;;14.82;5.50;;;-11.00;71.00;;;;;;4970548;28;20050;-88
2024/01/12 20:28:42;;;;;;;;;;;;;;;;;;;;;
2024/01/12 20:31:32;;;;;;;10.23;4.00;;;-11.00;71.00;;;;;;4940207;28;20071;-83
2024/01/12 20:34:35;;;;;;;17.35;5.47;;;-11.00;70.90;;;;;;4960200;28;20067;-83
2024/01/12 20:37:24;;;;;;;10.82;4.00;;;-11.10;70.80;;;;;;4954238;28;20146;-86
2024/01/12 20:41:01;;;;;;;;;;;;;;;;;;;;;
2024/01/12 20:44:01;;;;;;;6.00;2.78;;;-11.10;70.80;;;;;;5039390;28;20453;-88
2024/01/12 20:47:24;;;;;;;;;;;;;;;;;;;;;
2024/01/12 20:51:01;;;;;;;;;;;;;;;;;;;;;
2024/01/12 21:01:05;;;;;;;;;;;;;;;;;;;;;
2024/01/12 21:25:48;;;;;;;;;;;;;;;;;;;;;
2024/01/12 21:29:23;;;;;;;19.52;5.97;;;-11.70;70.40;;;;;;4952554;29;20169;-86
2024/01/12 21:32:34;;;;;;;;;;;;;;;;;;;;;
2024/01/12 21:36:24;;;;;;;;;;;;;;;;;;;;;
2024/01/12 21:39:43;;;;;;;;;;;;;;;;;;;;;
2024/01/12 21:42:32;;;;;;;13.50;4.38;;;-11.80;70.60;;;;;;4873444;29;20056;-81
2024/01/12 21:45:10;;;;;;;10.57;4.70;;;-11.80;70.60;;;;;;4871024;29;20399;-81
2024/01/12 21:48:48;;;;;;;;;;;;;;;;;;;;;
2024/01/12 21:52:41;;;;;;;;;;;;;;;;;;;;;
2024/01/12 21:56:28;;;;;;;;;;;;;;;;;;;;;
2024/01/12 22:00:18;;;;;;;;;;;;;;;;;;;;;
2024/01/12 22:11:45;;;;;;;;;;;;;;;;;;;;;
2024/01/12 22:14:59;;;;;;;28.55;10.43;;;-12.20;68.00;;;;;;4766900;29;20609;-85
2024/01/12 22:17:56;;;;;;;30.20;10.20;;;-12.30;68.40;;;;;;4818131;29;20486;-87
2024/01/12 22:20:33;;;;;;;27.00;9.52;;;-12.30;68.70;;;;;;4930183;28;20046;-86
2024/01/12 22:23:46;;;;;;;31.02;9.35;;;-12.40;68.90;;;;;;5019664;28;20120;-86
2024/01/12 22:26:49;;;;;;;26.33;10.60;;;-12.40;69.20;;;;;;4965089;28;20604;-81
2024/01/12 22:30:07;;;;;;;;;;;;;;;;;;;;;
2024/01/12 22:33:52;;;;;;;;;;;;;;;;;;;;;
2024/01/12 22:37:13;;;;;;;21.60;8.60;;;-12.60;68.00;;;;;;4949134;28;20051;-84
2024/01/12 22:40:47;;;;;;;;;;;;;;;;;;;;;
2024/01/12 22:44:06;;;;;;;;;;;;;;;;;;;;;
2024/01/12 22:47:23;;;;;;;28.58;10.82;;;-12.80;67.50;;;;;;4857015;29;20057;-86
2024/01/12 22:54:33;;;;;;;22.30;8.85;;;-13.00;67.50;;;;;;4776196;30;20051;-86
2024/01/12 22:57:15;;;;;;;;;;;;;;;;;;;;;
2024/01/12 23:00:56;;;;;;;;;;;;;;;;;;;;;
2024/01/12 23:04:04;;;;;;;36.25;11.13;;;-13.10;67.40;;;;;;4820761;29;20514;-82
2024/01/12 23:07:02;;;;;;;30.70;11.43;;;-13.20;67.60;;;;;;4869927;29;20056;-82
2024/01/12 23:09:32;;;;;;;36.08;12.35;;;-13.20;67.50;;;;;;4911536;28;20043;-86
2024/01/12 23:12:20;;;;;;;;;;;;;;;;;;;;;
2024/01/12 23:15:23;;;;;;;36.50;12.13;;;-13.20;67.40;;;;;;4971011;28;20201;-84
2024/01/12 23:18:41;;;;;;;;;;;;;;;;;;;;;
2024/01/12 23:22:06;;;;;;;;;;;;;;;;;;;;;
2024/01/12 23:25:02;;;;;;;48.40;15.88;;;-13.40;67.60;;;;;;4908368;28;20050;-84
2024/01/12 23:33:15;;;;;;;;;;;;;;;;;;;;;
2024/01/12 23:36:41;;;;;;;34.47;12.43;;;-13.40;67.80;;;;;;4869599;29;20049;-82
2024/01/12 23:40:02;;;;;;;38.85;12.48;;;-13.50;67.80;;;;;;4849650;29;20188;-85
2024/01/12 23:43:32;;;;;;;;;;;;;;;;;;;;;
2024/01/12 23:46:34;;;;;;;35.03;13.32;;;;;;;;;;4759853;30;20060;-85
